Time;durP1;ratioP1;P1;durP2;ratioP2;P2;SDS_P1;SDS_P2;PMS_P1;PMS_P2;Temp;Humidity;BMP_temperature;BMP_pressure;BME280_temperature;BME280_humidity;BME280_pressure;Samples;Min_cycle;Max_cycle;Signal;HPM_P1;HPM_P2
2021/05/28 00:00:36;;;;;;;8.48;4.95;;;;;;;11.97;75.50;100355.16;2162308;41;20057;-80
2021/05/28 00:02:09;;;;;;;6.65;3.85;;;;;;;11.88;75.83;100353.34;2164605;41;20041;-79
2021/05/28 00:03:41;;;;;;;7.10;4.10;;;;;;;11.87;75.91;100367.72;2167882;41;20072;-80
2021/05/28 00:05:19;;;;;;;7.47;4.43;;;;;;;11.79;76.10;100347.00;2172296;41;20042;-81
2021/05/28 00:07:14;;;;;;;7.20;4.53;;;;;;;11.82;76.15;100351.22;2170256;41;20063;-81
2021/05/28 00:08:46;;;;;;;7.22;4.80;;;;;;;11.74;76.46;100349.28;2168377;41;20056;-80
2021/05/28 00:10:18;;;;;;;7.75;5.05;;;;;;;11.76;76.90;100362.53;2170142;41;20040;-81
2021/05/28 00:11:49;;;;;;;6.03;3.92;;;;;;;11.76;77.22;100358.00;2163915;41;20049;-80
2021/05/28 00:13:21;;;;;;;7.22;4.70;;;;;;;11.81;77.05;100354.88;2165834;41;20052;-81
2021/05/28 00:14:59;;;;;;;5.72;4.07;;;;;;;11.79;76.88;100354.22;2162188;41;20091;-81
2021/05/28 00:16:31;;;;;;;6.75;3.83;;;;;;;11.73;76.55;100358.31;2165112;41;20323;-80
2021/05/28 00:18:04;;;;;;;6.38;3.65;;;;;;;11.68;76.76;100356.06;2163454;41;20056;-80
2021/05/28 00:19:37;;;;;;;6.43;4.10;;;;;;;11.74;76.69;100362.69;2164831;41;20041;-80
2021/05/28 00:21:12;;;;;;;6.40;4.05;;;;;;;11.80;76.72;100361.25;2163289;41;20089;-80
2021/05/28 00:22:44;;;;;;;6.75;4.30;;;;;;;11.78;76.74;100371.28;2164377;41;20062;-80
2021/05/28 00:24:16;;;;;;;7.05;3.60;;;;;;;11.77;76.71;100369.56;2161825;41;20057;-80
2021/05/28 00:25:47;;;;;;;6.07;3.88;;;;;;;11.77;76.64;100367.72;2164394;41;20029;-80
2021/05/28 00:27:19;;;;;;;6.93;3.90;;;;;;;11.78;76.45;100360.56;2161948;41;20058;-80
2021/05/28 00:28:50;;;;;;;6.38;3.80;;;;;;;11.71;76.27;100369.16;2163742;41;20049;-80
2021/05/28 00:30:21;;;;;;;5.45;3.25;;;;;;;11.76;76.24;100370.56;2162824;41;20049;-80
2021/05/28 00:31:53;;;;;;;6.32;3.55;;;;;;;11.77;75.96;100366.91;2165523;41;20057;-79
2021/05/28 00:33:30;;;;;;;4.72;2.80;;;;;;;11.77;75.87;100365.03;2164313;41;20052;-80
2021/05/28 00:35:01;;;;;;;6.45;3.72;;;;;;;11.81;75.64;100370.97;2171570;41;20124;-80
2021/05/28 00:36:33;;;;;;;6.63;3.58;;;;;;;11.76;75.55;100368.72;2169478;41;20048;-80
2021/05/28 00:38:04;;;;;;;4.68;2.65;;;;;;;11.84;75.46;100368.00;2171499;41;20041;-80
2021/05/28 00:39:35;;;;;;;5.80;2.83;;;;;;;11.90;75.34;100364.75;2169915;41;20158;-80
2021/05/28 00:41:07;;;;;;;6.65;2.83;;;;;;;11.91;75.06;100369.09;2171471;41;20070;-80
2021/05/28 00:42:38;;;;;;;7.88;4.00;;;;;;;11.91;74.97;100365.59;2170013;41;20088;-78
2021/05/28 00:44:11;;;;;;;5.22;3.30;;;;;;;11.78;75.03;100365.91;2171911;41;20033;-79
2021/05/28 00:45:44;;;;;;;7.75;3.70;;;;;;;11.68;75.44;100366.78;2171238;41;20057;-80
2021/05/28 00:47:15;;;;;;;5.57;3.03;;;;;;;11.67;75.68;100364.22;2172352;41;20039;-80
2021/05/28 00:48:51;;;;;;;7.55;3.50;;;;;;;11.61;75.73;100368.34;2170577;41;20064;-81
2021/05/28 00:50:23;;;;;;;4.78;3.28;;;;;;;11.57;75.84;100369.63;2166541;41;20049;-81
2021/05/28 00:51:55;;;;;;;7.22;2.92;;;;;;;11.52;75.72;100361.19;2165665;41;20048;-80
2021/05/28 00:53:28;;;;;;;5.78;3.00;;;;;;;11.50;75.69;100374.69;2164768;41;20435;-81
2021/05/28 00:54:59;;;;;;;7.47;3.65;;;;;;;11.49;75.55;100364.13;2169262;41;20100;-81
2021/05/28 00:56:32;;;;;;;6.90;2.85;;;;;;;11.49;75.54;100362.28;2170790;41;20489;-80
2021/05/28 00:58:03;;;;;;;7.20;3.20;;;;;;;11.55;75.46;100372.44;2158169;41;20474;-80
2021/05/28 00:59:37;;;;;;;6.55;3.00;;;;;;;11.59;75.39;100361.41;2165369;41;20041;-80
2021/05/28 01:01:08;;;;;;;5.25;2.40;;;;;;;11.64;75.29;100364.53;2171518;41;20376;-80
2021/05/28 01:02:39;;;;;;;6.32;3.05;;;;;;;11.67;75.08;100357.06;2157632;41;20048;-81
2021/05/28 01:04:12;;;;;;;6.45;3.50;;;;;;;11.69;75.28;100357.75;2171225;41;20053;-79
2021/05/28 01:05:44;;;;;;;7.03;3.35;;;;;;;11.71;75.17;100361.13;2167069;41;20379;-79
2021/05/28 01:07:15;;;;;;;5.55;2.67;;;;;;;11.75;74.98;100366.19;2160313;41;20037;-79
2021/05/28 01:08:46;;;;;;;5.38;3.30;;;;;;;11.77;75.28;100365.03;2163498;41;20057;-79
2021/05/28 01:10:18;;;;;;;4.65;2.83;;;;;;;11.78;75.39;100360.56;2170236;41;20612;-79
2021/05/28 01:11:49;;;;;;;5.32;3.85;;;;;;;11.80;75.47;100361.25;2167804;41;20053;-79
2021/05/28 01:13:20;;;;;;;7.18;3.60;;;;;;;11.80;75.35;100363.94;2170474;41;20047;-79
2021/05/28 01:14:51;;;;;;;6.43;4.40;;;;;;;11.81;75.36;100366.47;2168631;41;20112;-79
2021/05/28 01:16:23;;;;;;;4.93;3.10;;;;;;;11.83;75.40;100369.84;2171730;41;20045;-80
2021/05/28 01:17:54;;;;;;;4.90;3.38;;;;;;;11.84;75.37;100373.34;2169501;41;20130;-79
2021/05/28 01:19:26;;;;;;;5.97;3.30;;;;;;;11.82;75.15;100376.19;2170703;41;20044;-79
2021/05/28 01:20:58;;;;;;;7.03;3.53;;;;;;;11.76;75.25;100375.91;2169293;41;20068;-79
2021/05/28 01:22:31;;;;;;;7.82;3.97;;;;;;;11.72;75.38;100372.69;2170822;41;20045;-79
2021/05/28 01:24:02;;;;;;;6.63;3.78;;;;;;;11.66;75.71;100379.47;2156735;41;20045;-79
2021/05/28 01:25:35;;;;;;;6.80;4.13;;;;;;;11.64;75.73;100370.72;2167693;41;20064;-79
2021/05/28 01:27:06;;;;;;;7.30;4.40;;;;;;;11.58;76.02;100376.66;2124974;41;20049;-79
2021/05/28 01:28:38;;;;;;;5.65;3.33;;;;;;;11.57;76.19;100382.16;2135155;41;21764;-81
2021/05/28 01:30:10;;;;;;;7.20;3.72;;;;;;;11.58;76.41;100382.00;2136146;41;20043;-80
2021/05/28 01:31:42;;;;;;;5.93;3.22;;;;;;;11.61;76.13;100384.41;2152658;41;20054;-81
2021/05/28 01:33:15;;;;;;;4.78;3.13;;;;;;;11.65;76.18;100387.66;2147667;41;20627;-80
2021/05/28 01:34:53;;;;;;;5.18;3.22;;;;;;;11.65;76.05;100390.31;2153542;41;20046;-80
2021/05/28 01:38:11;;;;;;;5.75;3.22;;;;;;;11.62;76.06;100393.28;2255841;39;20116;-80
2021/05/28 01:39:44;;;;;;;5.38;3.00;;;;;;;11.58;75.95;100384.69;2201324;39;20498;-82
2021/05/28 01:41:16;;;;;;;6.72;3.55;;;;;;;11.65;76.19;100385.81;2231012;40;20053;-80
2021/05/28 01:42:48;;;;;;;5.30;2.80;;;;;;;11.72;76.34;100383.41;2200883;39;20054;-80
2021/05/28 01:44:20;;;;;;;7.55;4.32;;;;;;;11.68;76.21;100376.63;2225716;40;20025;-80
2021/05/28 01:45:52;;;;;;;6.45;4.43;;;;;;;11.68;76.30;100392.69;2228102;39;20049;-80
2021/05/28 01:47:23;;;;;;;5.15;3.30;;;;;;;11.63;76.43;100385.09;2231051;40;20060;-80
2021/05/28 01:48:55;;;;;;;8.07;3.20;;;;;;;11.64;76.55;100380.59;2178152;40;20050;-80
2021/05/28 01:51:58;;;;;;;7.13;4.05;;;;;;;11.78;76.46;100381.97;2190604;40;20039;-80
2021/05/28 01:53:30;;;;;;;5.47;3.20;;;;;;;11.75;76.16;100371.53;2213398;39;20284;-80
2021/05/28 01:55:03;;;;;;;5.90;4.05;;;;;;;11.80;76.40;100375.47;2236207;40;20036;-80
2021/05/28 01:56:35;;;;;;;7.20;4.10;;;;;;;11.80;76.35;100369.28;2206782;39;20032;-81
2021/05/28 01:58:11;;;;;;;8.77;5.03;;;;;;;11.71;76.39;100377.19;2225799;40;20633;-80
2021/05/28 01:59:43;;;;;;;7.07;4.50;;;;;;;11.67;76.45;100380.28;2227431;40;20041;-80
2021/05/28 02:01:15;;;;;;;7.07;4.38;;;;;;;11.69;76.62;100379.19;2232565;40;20063;-80
2021/05/28 02:02:46;;;;;;;5.90;3.20;;;;;;;11.69;76.50;100368.47;2205476;40;20321;-80
2021/05/28 02:04:18;;;;;;;7.60;3.13;;;;;;;11.73;76.63;100379.72;2198258;40;20112;-80
2021/05/28 02:05:49;;;;;;;4.43;2.58;;;;;;;11.76;76.47;100381.28;2191905;40;20503;-80
2021/05/28 02:07:22;;;;;;;5.38;2.92;;;;;;;11.78;76.46;100381.97;2228683;40;20021;-80
2021/05/28 02:08:54;;;;;;;4.93;2.78;;;;;;;11.80;75.94;100375.47;2216456;40;20066;-80
2021/05/28 02:10:26;;;;;;;5.72;3.05;;;;;;;11.83;75.69;100377.03;2229015;40;20033;-80
2021/05/28 02:11:57;;;;;;;7.20;3.20;;;;;;;11.85;75.70;100383.09;2222157;40;20370;-80
2021/05/28 02:13:29;;;;;;;5.85;3.00;;;;;;;11.85;75.57;100388.44;2230770;40;20083;-80
2021/05/28 02:15:01;;;;;;;5.47;3.33;;;;;;;11.88;75.41;100384.63;2230270;40;20059;-79
2021/05/28 02:16:33;;;;;;;7.18;4.88;;;;;;;11.88;75.34;100379.25;2229770;40;20073;-80
2021/05/28 02:18:06;;;;;;;6.72;3.35;;;;;;;11.88;75.57;100388.16;2226997;40;20063;-80
2021/05/28 02:19:37;;;;;;;6.65;3.75;;;;;;;11.91;75.46;100387.84;2230652;40;20035;-80
2021/05/28 02:21:09;;;;;;;7.88;4.60;;;;;;;11.84;75.51;100376.03;2227257;40;20278;-80
2021/05/28 02:22:40;;;;;;;7.07;3.65;;;;;;;11.78;75.67;100373.94;2229626;40;20122;-79
2021/05/28 02:24:14;;;;;;;6.82;4.75;;;;;;;11.80;75.77;100385.38;2230113;40;20056;-80
2021/05/28 02:25:46;;;;;;;6.55;3.63;;;;;;;11.80;75.86;100380.00;2229139;40;20037;-79
2021/05/28 02:27:17;;;;;;;7.43;4.35;;;;;;;11.80;75.87;100383.53;2231003;39;20046;-79
2021/05/28 02:28:49;;;;;;;6.65;3.92;;;;;;;11.76;75.85;100383.94;2235320;40;20024;-80
2021/05/28 02:30:21;;;;;;;10.07;4.43;;;;;;;11.75;75.91;100374.22;2233807;39;20048;-80
2021/05/28 02:31:53;;;;;;;7.00;4.53;;;;;;;11.76;75.82;100378.59;2235442;39;20463;-79
2021/05/28 02:33:25;;;;;;;6.10;4.13;;;;;;;11.76;76.07;100375.91;2234652;39;20408;-80
2021/05/28 02:34:59;;;;;;;6.15;3.88;;;;;;;11.80;76.17;100377.34;2236541;40;20036;-80
2021/05/28 02:36:35;;;;;;;7.07;4.10;;;;;;;11.82;76.09;100375.31;2234232;39;20044;-80
2021/05/28 02:38:07;;;;;;;6.15;4.40;;;;;;;11.82;76.24;100372.66;2236026;39;20056;-80
2021/05/28 02:39:49;;;;;;;6.10;3.20;;;;;;;11.84;76.06;100376.03;2234428;39;20077;-81
2021/05/28 02:41:20;;;;;;;8.32;4.55;;;;;;;11.85;76.27;100375.03;2230252;40;20316;-80
2021/05/28 02:42:52;;;;;;;9.48;4.63;;;;;;;11.84;76.28;100371.53;2227592;40;20045;-80
2021/05/28 02:44:25;;;;;;;7.82;4.38;;;;;;;11.79;76.03;100375.63;2227660;39;20033;-80
2021/05/28 02:45:58;;;;;;;11.07;5.50;;;;;;;11.75;75.78;100375.09;2224041;40;20099;-80
2021/05/28 02:47:30;;;;;;;7.07;4.50;;;;;;;11.69;75.82;100381.84;2222020;40;20030;-80
2021/05/28 02:49:02;;;;;;;10.23;5.47;;;;;;;11.62;75.95;100378.03;2221234;40;20038;-80
2021/05/28 02:50:35;;;;;;;9.32;5.63;;;;;;;11.57;76.22;100384.84;2217214;40;20041;-80
2021/05/28 02:52:14;;;;;;;10.38;5.05;;;;;;;11.49;76.62;100383.69;2219674;40;20069;-80
2021/05/28 02:53:45;;;;;;;9.02;4.82;;;;;;;11.47;76.92;100393.72;2217343;40;20060;-78
2021/05/28 02:55:18;;;;;;;7.57;4.45;;;;;;;11.44;76.99;100394.00;2224692;40;20037;-79
2021/05/28 02:56:49;;;;;;;7.25;4.82;;;;;;;11.41;77.06;100396.13;2226808;40;20397;-78
2021/05/28 02:58:24;;;;;;;8.25;4.60;;;;;;;11.34;77.12;100399.34;2230520;40;20040;-79
2021/05/28 03:00:05;;;;;;;8.60;5.50;;;;;;;11.30;77.42;100402.44;2227962;40;20943;-80
2021/05/28 03:01:37;;;;;;;;;;;;;;;11.23;77.55;100402.19;2225181;40;20044;-79
2021/05/28 03:03:09;;;;;;;7.00;5.10;;;;;;;11.22;77.70;100403.16;2226669;40;20275;-79
2021/05/28 03:04:40;;;;;;;7.93;4.40;;;;;;;11.19;78.01;100403.44;2230414;40;20325;-79
2021/05/28 03:06:12;;;;;;;6.65;4.32;;;;;;;11.17;78.28;100400.06;2228559;40;20165;-78
2021/05/28 03:07:43;;;;;;;7.35;4.43;;;;;;;11.17;78.33;100398.25;2224714;40;20037;-79
2021/05/28 03:09:14;;;;;;;7.88;5.53;;;;;;;11.23;78.28;100404.88;2200392;40;20039;-80
2021/05/28 03:11:25;;;;;;;11.48;5.55;;;;;;;11.28;78.21;100405.28;2226239;40;20417;-83
2021/05/28 03:18:02;;;;;;;8.88;5.05;;;;;;;11.42;77.73;100403.19;2187391;40;20063;-80
2021/05/28 03:19:42;;;;;;;6.35;4.45;;;;;;;11.45;77.67;100405.53;2188886;40;20059;-80
2021/05/28 03:21:23;;;;;;;8.65;4.18;;;;;;;11.47;77.71;100395.53;2182908;41;20104;-80
2021/05/28 03:23:04;;;;;;;7.45;4.43;;;;;;;11.55;77.56;100406.38;2202091;40;20067;-80
2021/05/28 03:24:51;;;;;;;5.43;3.72;;;;;;;11.55;77.56;100409.06;2184910;40;20032;-80
2021/05/28 03:26:25;;;;;;;7.03;4.95;;;;;;;11.48;77.55;100406.09;2195088;40;20047;-80
2021/05/28 03:27:59;;;;;;;8.68;5.20;;;;;;;11.44;77.68;100407.38;2192142;40;20062;-81
2021/05/28 03:29:40;;;;;;;8.35;4.43;;;;;;;11.37;77.94;100409.78;2177686;40;20558;-80
2021/05/28 03:31:12;;;;;;;9.30;4.95;;;;;;;11.35;78.01;100411.75;2194591;40;20038;-79
2021/05/28 03:32:43;;;;;;;7.28;4.95;;;;;;;11.33;78.07;100408.38;2208150;40;26571;-78
2021/05/28 03:34:14;;;;;;;9.52;5.53;;;;;;;11.37;78.21;100411.63;2227912;40;20069;-78
2021/05/28 03:35:45;;;;;;;8.77;5.07;;;;;;;11.37;78.19;100409.78;2228003;39;20058;-77
2021/05/28 03:37:17;;;;;;;7.90;5.07;;;;;;;11.39;77.92;100406.94;2226428;40;20055;-78
2021/05/28 03:38:48;;;;;;;9.45;5.68;;;;;;;11.38;77.85;100405.28;2225646;39;20564;-78
2021/05/28 03:40:19;;;;;;;7.30;4.75;;;;;;;11.37;77.80;100414.31;2222513;40;20036;-78
2021/05/28 03:41:52;;;;;;;7.25;4.75;;;;;;;11.37;77.75;100412.47;2202458;40;20690;-77
2021/05/28 03:43:25;;;;;;;6.97;5.43;;;;;;;11.33;77.88;100415.56;2228510;40;20040;-80
2021/05/28 03:44:56;;;;;;;7.28;5.10;;;;;;;11.33;77.73;100416.41;2220800;40;20049;-80
2021/05/28 03:46:27;;;;;;;7.57;4.43;;;;;;;11.30;77.94;100410.47;2216402;40;20026;-79
2021/05/28 03:47:58;;;;;;;7.50;4.18;;;;;;;11.37;77.80;100406.28;2221174;40;20044;-77
2021/05/28 03:49:30;;;;;;;5.38;3.45;;;;;;;11.43;77.71;100402.19;2228129;40;20036;-79
2021/05/28 03:51:14;;;;;;;6.72;3.95;;;;;;;11.50;77.50;100408.66;2226974;40;20048;-80
2021/05/28 03:54:41;;;;;;;6.15;4.43;;;;;;;11.53;77.36;100406.53;2222066;39;20036;-80
2021/05/28 03:56:13;;;;;;;7.97;5.53;;;;;;;11.48;77.59;100407.94;2233120;40;20036;-82
2021/05/28 03:57:45;;;;;;;8.30;5.20;;;;;;;11.48;77.53;100410.63;2203959;40;20064;-81
2021/05/28 03:59:16;;;;;;;8.02;5.25;;;;;;;11.43;77.69;100419.09;2218964;40;20040;-81
2021/05/28 04:00:47;;;;;;;10.57;6.28;;;;;;;11.43;77.60;100412.91;2225086;40;20056;-80
2021/05/28 04:02:20;;;;;;;7.38;4.93;;;;;;;11.40;77.71;100405.97;2226093;40;20670;-81
2021/05/28 04:03:51;;;;;;;6.00;4.35;;;;;;;11.41;78.06;100410.34;2222616;40;20047;-82
2021/05/28 04:05:22;;;;;;;6.60;4.03;;;;;;;11.40;77.95;100400.63;2225631;40;20032;-82
2021/05/28 04:06:54;;;;;;;7.00;4.75;;;;;;;11.49;77.99;100404.28;2200061;40;20041;-82
2021/05/28 04:08:25;;;;;;;5.60;3.60;;;;;;;11.53;77.88;100403.00;2221180;40;20201;-82
2021/05/28 04:09:56;;;;;;;7.07;5.20;;;;;;;11.59;77.76;100405.13;2226701;40;20041;-81
2021/05/28 04:11:28;;;;;;;9.20;5.10;;;;;;;11.61;77.73;100402.28;2225573;39;20037;-82
2021/05/28 04:13:00;;;;;;;7.30;4.80;;;;;;;11.62;77.46;100404.00;2226884;40;20033;-81
2021/05/28 04:14:31;;;;;;;8.35;5.65;;;;;;;11.62;77.52;100410.19;2225811;40;20606;-81
2021/05/28 04:16:03;;;;;;;7.18;4.85;;;;;;;11.59;77.21;100399.78;2232978;40;20479;-82
2021/05/28 04:17:35;;;;;;;7.85;5.00;;;;;;;11.61;77.25;100403.16;2232027;40;20029;-82
2021/05/28 04:19:06;;;;;;;8.75;5.68;;;;;;;11.63;77.25;100411.88;2227460;40;20069;-82
2021/05/28 04:20:39;;;;;;;12.75;6.40;;;;;;;11.63;77.08;100411.03;2225592;40;20041;-81
2021/05/28 04:22:10;;;;;;;8.45;6.32;;;;;;;11.63;77.12;100403.84;2226719;40;20025;-81
2021/05/28 04:23:41;;;;;;;11.40;6.32;;;;;;;11.66;76.96;100400.88;2225810;40;20057;-81
2021/05/28 04:25:13;;;;;;;9.57;4.97;;;;;;;11.67;76.74;100407.94;2226741;40;20033;-81
2021/05/28 04:26:45;;;;;;;9.05;5.45;;;;;;;11.72;76.77;100410.19;2225879;40;20086;-81
2021/05/28 04:28:18;;;;;;;10.02;6.25;;;;;;;11.76;76.58;100405.38;2227239;40;20044;-81
2021/05/28 04:29:49;;;;;;;12.85;7.20;;;;;;;11.76;76.73;100406.22;2225462;40;20049;-81
2021/05/28 04:31:22;;;;;;;11.77;7.13;;;;;;;11.77;76.59;100399.88;2227594;40;20032;-81
2021/05/28 04:32:54;;;;;;;10.32;5.55;;;;;;;11.78;76.73;100400.72;2226627;40;20064;-81
2021/05/28 04:34:25;;;;;;;9.45;5.80;;;;;;;11.77;76.67;100397.19;2227594;40;20017;-81
2021/05/28 04:35:57;;;;;;;7.88;5.25;;;;;;;11.78;76.78;100403.41;2225632;40;20586;-81
2021/05/28 04:37:28;;;;;;;9.35;6.50;;;;;;;11.80;76.61;100401.44;2229538;40;20059;-81
2021/05/28 04:38:59;;;;;;;7.35;5.18;;;;;;;11.80;76.88;100404.13;2231775;40;20092;-81
2021/05/28 04:40:31;;;;;;;11.50;6.57;;;;;;;11.82;76.66;100404.78;2233067;40;20095;-81
2021/05/28 04:42:02;;;;;;;10.35;6.75;;;;;;;11.82;76.47;100407.47;2201561;40;20066;-80
2021/05/28 04:43:35;;;;;;;9.43;6.75;;;;;;;11.81;76.36;100403.97;2216585;40;20045;-81
2021/05/28 04:45:07;;;;;;;9.85;7.50;;;;;;;11.78;76.79;100403.41;2213108;40;20048;-81
2021/05/28 04:46:38;;;;;;;8.38;5.45;;;;;;;11.77;76.77;100407.06;2224681;40;20344;-81
2021/05/28 04:48:11;;;;;;;8.45;5.00;;;;;;;11.77;76.98;100399.03;2197179;40;20052;-81
2021/05/28 04:49:42;;;;;;;8.20;5.07;;;;;;;11.82;76.83;100410.16;2227503;40;20423;-81
2021/05/28 04:51:15;;;;;;;13.48;7.40;;;;;;;11.80;76.53;100407.63;2218476;40;20033;-82
2021/05/28 04:52:47;;;;;;;7.93;5.72;;;;;;;11.80;76.65;100420.19;2231678;40;20111;-81
2021/05/28 04:54:18;;;;;;;8.48;5.32;;;;;;;11.81;76.35;100409.31;2207319;40;20033;-81
2021/05/28 04:55:50;;;;;;;10.40;6.85;;;;;;;11.85;76.52;100415.22;2219997;40;20070;-81
2021/05/28 04:57:22;;;;;;;10.50;7.13;;;;;;;11.83;76.50;100412.69;2200771;40;20046;-81
2021/05/28 04:58:54;;;;;;;11.70;6.07;;;;;;;11.83;76.63;100422.56;2220748;40;20025;-81
2021/05/28 05:00:26;;;;;;;13.45;7.82;;;;;;;11.85;76.83;100420.59;2206651;40;20038;-81
2021/05/28 05:01:57;;;;;;;10.18;7.22;;;;;;;11.84;76.80;100425.13;2206875;40;20085;-81
2021/05/28 05:03:29;;;;;;;12.43;6.43;;;;;;;11.82;76.69;100420.88;2204270;40;20037;-82
2021/05/28 05:05:00;;;;;;;11.93;8.07;;;;;;;11.81;76.49;100430.75;2220004;40;20439;-80
2021/05/28 05:06:31;;;;;;;12.13;8.35;;;;;;;11.76;76.80;100430.31;2224252;40;20049;-82
2021/05/28 05:08:03;;;;;;;9.70;7.05;;;;;;;11.81;76.72;100425.38;2226738;40;20635;-80
2021/05/28 05:09:34;;;;;;;10.32;6.65;;;;;;;11.81;76.55;100433.44;2225445;40;20526;-80
2021/05/28 05:11:05;;;;;;;11.07;6.97;;;;;;;11.86;76.44;100438.34;2226609;40;20066;-80
2021/05/28 05:12:37;;;;;;;11.57;7.03;;;;;;;11.87;76.45;100434.69;2225235;40;20037;-81
2021/05/28 05:14:10;;;;;;;15.40;8.40;;;;;;;11.85;76.48;100432.13;2226804;40;20045;-79
2021/05/28 05:15:41;;;;;;;14.20;8.70;;;;;;;11.84;76.63;100437.66;2225463;40;20037;-80
2021/05/28 05:17:12;;;;;;;11.23;6.38;;;;;;;11.84;76.60;100434.97;2226777;40;20033;-80
2021/05/28 05:18:45;;;;;;;10.07;6.78;;;;;;;11.89;76.94;100438.06;2221397;40;20360;-80
2021/05/28 05:20:16;;;;;;;8.85;5.70;;;;;;;11.92;76.84;100437.75;2228326;40;20044;-79
2021/05/28 05:21:47;;;;;;;9.55;6.88;;;;;;;11.95;76.78;100440.16;2223922;40;20048;-80
2021/05/28 05:23:19;;;;;;;7.93;5.45;;;;;;;11.96;76.76;100441.00;2226159;40;20033;-80
2021/05/28 05:24:50;;;;;;;8.65;6.45;;;;;;;11.95;76.70;100436.66;2190445;40;20050;-80
2021/05/28 05:26:21;;;;;;;11.10;8.23;;;;;;;11.97;76.91;100438.22;2219641;40;20033;-80
2021/05/28 05:27:53;;;;;;;8.18;5.43;;;;;;;12.00;76.99;100434.41;2210199;40;20056;-79
2021/05/28 05:29:25;;;;;;;8.20;6.05;;;;;;;12.04;76.80;100440.31;2217967;40;20033;-80
2021/05/28 05:30:56;;;;;;;13.15;8.52;;;;;;;12.06;76.75;100441.03;2224512;39;20423;-79
2021/05/28 05:32:28;;;;;;;10.88;7.65;;;;;;;11.99;76.75;100452.34;2213457;40;20034;-80
2021/05/28 05:33:59;;;;;;;9.80;7.15;;;;;;;11.96;77.08;100449.91;2224754;40;20041;-79
2021/05/28 05:35:31;;;;;;;9.25;6.47;;;;;;;11.99;76.90;100448.78;2206493;40;20025;-80
2021/05/28 05:37:02;;;;;;;11.95;8.25;;;;;;;12.03;77.19;100444.84;2221017;40;20067;-78
2021/05/28 05:40:06;;;;;;;11.35;7.50;;;;;;;12.04;77.09;100448.34;2194291;40;20050;-80
2021/05/28 05:41:37;;;;;;;11.45;7.88;;;;;;;12.07;76.93;100448.91;2205660;40;20035;-80
2021/05/28 05:43:08;;;;;;;9.02;6.35;;;;;;;12.08;76.96;100447.09;2183641;40;20650;-80
2021/05/28 05:44:41;;;;;;;10.75;7.80;;;;;;;12.11;76.92;100453.00;2189873;40;20668;-80
2021/05/28 05:46:12;;;;;;;10.00;7.10;;;;;;;12.14;76.81;100449.19;2226035;40;20044;-79
2021/05/28 05:47:44;;;;;;;9.50;6.95;;;;;;;12.19;76.69;100452.25;2221838;40;22140;-80
2021/05/28 05:49:16;;;;;;;8.55;6.20;;;;;;;12.22;76.60;100449.28;2226500;40;20032;-80
2021/05/28 05:50:47;;;;;;;14.60;8.43;;;;;;;12.27;76.14;100457.75;2207875;40;20062;-80
2021/05/28 05:52:18;;;;;;;14.77;9.02;;;;;;;12.20;75.51;100462.00;2232211;40;20068;-80
2021/05/28 05:53:49;;;;;;;14.82;9.68;;;;;;;12.07;75.19;100461.47;2221609;40;20337;-80
2021/05/28 05:55:22;;;;;;;12.30;7.40;;;;;;;11.98;75.32;100460.50;2226107;40;20032;-80
2021/05/28 05:56:53;;;;;;;12.70;8.55;;;;;;;12.02;75.17;100465.41;2225152;40;20087;-80
2021/05/28 05:58:25;;;;;;;10.80;8.40;;;;;;;12.05;75.15;100461.59;2225278;40;20646;-79
2021/05/28 05:59:57;;;;;;;11.48;7.80;;;;;;;12.09;74.96;100459.50;2224896;40;20693;-78
2021/05/28 06:01:29;;;;;;;10.38;8.27;;;;;;;12.03;74.16;100460.94;2226693;40;20033;-80
2021/05/28 06:03:00;;;;;;;10.55;8.02;;;;;;;12.00;74.16;100462.03;2224577;40;20045;-80
2021/05/28 06:04:31;;;;;;;11.93;7.97;;;;;;;12.00;73.87;100462.03;2226488;40;20044;-80
2021/05/28 06:06:03;;;;;;;9.85;7.88;;;;;;;12.03;73.18;100466.28;2222459;40;20108;-80
2021/05/28 06:07:35;;;;;;;14.82;8.10;;;;;;;11.91;72.50;100457.50;2220719;40;20034;-79
2021/05/28 06:09:06;;;;;;;11.02;7.50;;;;;;;11.78;72.53;100463.16;2222395;40;20041;-79
2021/05/28 06:10:37;;;;;;;11.52;7.90;;;;;;;11.76;72.73;100477.69;2226832;40;20387;-80
2021/05/28 06:12:10;;;;;;;12.98;8.25;;;;;;;11.76;73.03;100469.66;2222405;40;20449;-79
2021/05/28 06:13:41;;;;;;;11.95;6.60;;;;;;;11.81;73.09;100475.41;2220624;40;20081;-79
2021/05/28 06:15:14;;;;;;;10.52;7.47;;;;;;;11.88;72.42;100479.25;2225330;40;20040;-79
2021/05/28 06:16:45;;;;;;;8.65;6.57;;;;;;;11.97;72.19;100467.69;2233197;40;20432;-80
2021/05/28 06:18:17;;;;;;;9.13;6.55;;;;;;;12.11;71.75;100470.91;2231550;40;20460;-80
2021/05/28 06:19:48;;;;;;;10.75;8.23;;;;;;;12.20;71.26;100467.34;2232794;40;20036;-79
2021/05/28 06:21:19;;;;;;;13.38;8.93;;;;;;;12.14;70.97;100481.34;2217053;40;20059;-80
2021/05/28 06:22:50;;;;;;;11.60;7.03;;;;;;;12.15;71.40;100480.34;2230861;40;20029;-80
2021/05/28 06:24:22;;;;;;;10.88;6.15;;;;;;;12.23;71.15;100475.13;2192215;40;20511;-79
2021/05/28 06:25:53;;;;;;;9.48;7.05;;;;;;;12.25;70.72;100474.97;2215680;40;20619;-81
2021/05/28 06:27:25;;;;;;;10.02;6.63;;;;;;;12.20;70.58;100491.47;2196754;40;20435;-78
2021/05/28 06:28:56;;;;;;;8.45;6.68;;;;;;;12.20;70.39;100478.06;2222604;40;20045;-79
2021/05/28 06:30:28;;;;;;;9.00;5.78;;;;;;;12.32;69.69;100492.19;2180350;40;20058;-79
2021/05/28 06:31:59;;;;;;;7.93;5.63;;;;;;;12.42;69.33;100486.78;2202661;40;20035;-79
2021/05/28 06:33:31;;;;;;;9.95;6.82;;;;;;;12.53;69.13;100483.91;2208236;40;20039;-80
2021/05/28 06:35:02;;;;;;;11.60;7.40;;;;;;;12.51;68.94;100485.06;2195907;40;20050;-79
2021/05/28 06:36:33;;;;;;;9.77;6.28;;;;;;;12.45;69.30;100481.13;2202180;40;20534;-79
2021/05/28 06:38:05;;;;;;;8.93;5.55;;;;;;;12.49;69.47;100482.50;2201338;40;20102;-78
2021/05/28 06:39:37;;;;;;;8.57;6.20;;;;;;;12.51;69.43;100475.16;2198261;40;20046;-79
2021/05/28 06:41:08;;;;;;;13.15;6.90;;;;;;;12.57;69.26;100479.09;2206959;40;20034;-79
2021/05/28 06:42:39;;;;;;;11.85;7.35;;;;;;;12.54;69.31;100474.88;2183272;40;20055;-80
2021/05/28 06:44:10;;;;;;;11.68;7.78;;;;;;;12.53;69.32;100473.19;2194337;40;20035;-79
2021/05/28 06:45:43;;;;;;;12.10;7.57;;;;;;;12.49;69.44;100482.50;2206474;40;20034;-79
2021/05/28 06:47:16;;;;;;;11.07;7.55;;;;;;;12.46;69.58;100482.81;2207996;40;20684;-80
2021/05/28 06:48:47;;;;;;;10.93;8.13;;;;;;;12.46;69.59;100477.47;2191375;40;20632;-79
2021/05/28 06:50:18;;;;;;;10.48;7.38;;;;;;;12.51;69.56;100491.25;2205784;40;20049;-80
2021/05/28 06:51:51;;;;;;;10.07;7.15;;;;;;;12.64;68.92;100480.19;2208299;40;20649;-80
2021/05/28 06:53:22;;;;;;;10.07;6.20;;;;;;;12.60;68.56;100493.06;2213772;40;20583;-80
2021/05/28 06:54:54;;;;;;;8.43;6.22;;;;;;;12.57;68.26;100485.28;2173291;40;20056;-80
2021/05/28 06:56:25;;;;;;;9.02;6.07;;;;;;;12.62;67.96;100488.41;2182223;41;21057;-79
2021/05/28 06:57:56;;;;;;;9.55;5.15;;;;;;;12.67;68.02;100493.31;2169841;40;20052;-79
2021/05/28 06:59:28;;;;;;;7.82;5.28;;;;;;;12.80;67.74;100501.03;2195812;40;20077;-80
2021/05/28 07:01:00;;;;;;;9.80;4.40;;;;;;;12.89;67.51;100488.56;2202836;40;20043;-79
2021/05/28 07:02:32;;;;;;;8.48;5.22;;;;;;;12.98;67.21;100494.84;2210219;40;20255;-80
2021/05/28 07:04:04;;;;;;;8.90;6.13;;;;;;;13.00;66.70;100493.72;2203271;40;20045;-79
2021/05/28 07:05:35;;;;;;;8.60;5.55;;;;;;;12.90;67.07;100492.91;2202278;40;20029;-78
2021/05/28 07:07:06;;;;;;;7.75;5.90;;;;;;;13.01;67.05;100487.34;2193769;40;20045;-79
2021/05/28 07:08:38;;;;;;;6.40;4.47;;;;;;;13.15;66.77;100491.38;2198536;40;20029;-80
2021/05/28 07:10:11;;;;;;;9.65;6.05;;;;;;;13.29;66.18;100492.69;2209522;40;20054;-80
2021/05/28 07:11:42;;;;;;;8.88;5.65;;;;;;;13.36;66.13;100495.63;2215039;40;20041;-80
2021/05/28 07:13:13;;;;;;;8.45;5.18;;;;;;;13.55;65.75;100492.00;2226065;40;20083;-80
2021/05/28 07:14:44;;;;;;;6.22;4.20;;;;;;;13.84;65.09;100493.56;2227593;40;20029;-81
2021/05/28 07:16:17;;;;;;;8.75;5.18;;;;;;;14.08;64.16;100487.53;2234534;40;20091;-81
2021/05/28 07:17:48;;;;;;;7.05;4.90;;;;;;;14.38;63.51;100490.75;2232294;40;20476;-80
2021/05/28 07:19:21;;;;;;;9.50;5.55;;;;;;;14.54;62.55;100489.19;2233964;40;20081;-79
2021/05/28 07:20:53;;;;;;;8.55;4.93;;;;;;;14.58;62.40;100482.47;2232863;40;20094;-81